Time;durP1;ratioP1;P1;durP2;ratioP2;P2;SDS_P1;SDS_P2;PMS_P1;PMS_P2;Temp;Humidity;BMP_temperature;BMP_pressure;BME280_temperature;BME280_humidity;BME280_pressure;Samples;Min_cycle;Max_cycle;Signal;HPM_P1;HPM_P2
2022/01/28 00:03:17;;;;;;;10.80;6.50;;;;;;;3.45;71.88;98583.41;221346;1277;139501;-60
2022/01/28 00:08:20;;;;;;;11.30;7.30;;;;;;;3.45;71.78;98582.90;221091;1276;139701;-60
2022/01/28 00:13:38;;;;;;;11.00;6.60;;;;;;;3.40;71.85;98585.89;221050;1276;139302;-60
2022/01/28 00:39:57;;;;;;;12.00;7.10;;;;;;;3.52;71.98;98571.36;221199;1276;139032;-61
2022/01/28 00:45:01;;;;;;;11.00;7.00;;;;;;;3.53;72.20;98567.27;221225;1276;253554;-60
2022/01/28 00:50:05;;;;;;;9.70;6.20;;;;;;;3.59;72.11;98559.17;221262;1276;139515;-61
2022/01/28 00:55:08;;;;;;;12.80;7.10;;;;;;;3.60;71.96;98557.88;221065;1276;139231;-60
2022/01/28 01:00:12;;;;;;;11.70;6.80;;;;;;;3.60;71.77;98556.31;220954;1276;139723;-59
2022/01/28 01:05:15;;;;;;;11.00;7.10;;;;;;;3.63;71.78;98558.28;220873;1276;139531;-61
2022/01/28 01:10:18;;;;;;;9.10;6.80;;;;;;;3.62;72.04;98562.54;221415;1276;139283;-61
2022/01/28 01:15:25;;;;;;;10.80;7.50;;;;;;;3.65;72.02;98542.41;221466;1277;138373;-61
2022/01/28 01:25:41;;;;;;;11.00;7.00;;;;;;;3.73;71.71;98514.70;221208;1276;139039;-62
2022/01/28 01:30:45;;;;;;;9.80;6.70;;;;;;;3.77;71.53;98509.98;221277;1276;139147;-58
2022/01/28 01:35:48;;;;;;;10.00;5.80;;;;;;;3.77;71.61;98525.40;221453;1276;138569;-61
2022/01/28 01:40:55;;;;;;;9.30;5.80;;;;;;;3.79;71.47;98529.71;221176;1276;140003;-59
2022/01/28 01:56:28;;;;;;;9.10;5.50;;;;;;;3.73;71.37;98522.60;221188;1277;139271;-60
2022/01/28 02:01:32;;;;;;;8.30;5.00;;;;;;;3.79;71.62;98510.41;221194;1276;139852;-60
2022/01/28 02:06:35;;;;;;;7.40;5.10;;;;;;;3.83;71.45;98505.88;221145;1276;139299;-61
2022/01/28 02:11:42;;;;;;;7.80;4.90;;;;;;;3.84;71.51;98503.56;221310;1276;138931;-60
2022/01/28 02:16:45;;;;;;;6.70;4.30;;;;;;;3.80;71.31;98495.98;221326;1276;138904;-61
2022/01/28 02:21:51;;;;;;;7.50;4.50;;;;;;;3.81;70.92;98486.66;221265;1276;139324;-61
2022/01/28 02:26:54;;;;;;;7.60;5.00;;;;;;;3.79;70.96;98488.68;221110;1276;138753;-61
2022/01/28 02:32:00;;;;;;;7.80;4.70;;;;;;;3.76;70.89;98487.04;221187;1276;139547;-58
2022/01/28 02:37:04;;;;;;;7.20;4.80;;;;;;;3.72;70.67;98489.50;221386;1276;138616;-62
2022/01/28 02:42:26;;;;;;;7.30;4.40;;;;;;;3.76;70.97;98489.49;221322;1276;139579;-62
2022/01/28 02:47:33;;;;;;;6.10;4.30;;;;;;;3.82;70.92;98495.03;221237;1276;138754;-60
2022/01/28 02:52:44;;;;;;;7.70;4.20;;;;;;;3.87;70.96;98496.91;221371;1276;138567;-60
2022/01/28 02:58:02;;;;;;;5.00;3.50;;;;;;;3.90;70.80;98494.86;221494;1276;140039;-61
2022/01/28 03:03:05;;;;;;;6.40;4.30;;;;;;;3.92;70.48;98490.92;221222;1276;138778;-59
2022/01/28 03:08:08;;;;;;;4.70;3.50;;;;;;;3.95;70.26;98476.38;221328;1276;139018;-61
2022/01/28 03:18:19;;;;;;;6.00;4.00;;;;;;;3.94;70.02;98480.47;221326;1275;139067;-59
2022/01/28 03:23:22;;;;;;;5.40;3.70;;;;;;;3.88;70.02;98481.45;221258;1275;140000;-62
2022/01/28 03:28:25;;;;;;;6.10;3.50;;;;;;;3.82;69.98;98480.45;221355;1276;138827;-60
2022/01/28 03:33:28;;;;;;;4.80;2.90;;;;;;;3.82;69.75;98469.44;221332;1276;140380;-59
2022/01/28 03:38:31;;;;;;;4.80;3.30;;;;;;;3.81;70.11;98475.42;221366;1276;138763;-60
2022/01/28 03:43:34;;;;;;;3.50;2.60;;;;;;;3.79;70.02;98472.52;221320;1277;138948;-61
2022/01/28 03:48:37;;;;;;;5.20;2.50;;;;;;;3.80;69.81;98469.68;221385;1276;141266;-59
2022/01/28 03:53:40;;;;;;;3.70;2.60;;;;;;;3.82;69.74;98474.86;221247;1277;139490;-61
2022/01/28 03:58:44;;;;;;;4.10;2.70;;;;;;;3.86;70.04;98480.30;221317;1276;139262;-59
2022/01/28 04:04:23;;;;;;;4.90;3.10;;;;;;;3.88;69.81;98482.66;221483;1276;138564;-60
2022/01/28 04:14:44;;;;;;;3.30;2.50;;;;;;;3.90;69.39;98484.83;221403;1276;139440;-61
2022/01/28 04:19:49;;;;;;;4.50;2.80;;;;;;;3.95;69.76;98484.98;221403;1276;139166;-62
2022/01/28 04:24:52;;;;;;;5.10;2.80;;;;;;;3.96;69.66;98492.30;221338;1276;139374;-62
2022/01/28 04:29:55;;;;;;;4.60;2.40;;;;;;;3.94;69.50;98489.92;221239;1275;139259;-61
2022/01/28 04:34:59;;;;;;;3.40;2.30;;;;;;;3.94;69.46;98485.94;221272;1277;139650;-59
2022/01/28 04:40:18;;;;;;;4.40;2.30;;;;;;;3.89;69.39;98481.40;221556;1276;138473;-60
2022/01/28 04:45:34;;;;;;;4.60;2.20;;;;;;;3.83;69.30;98480.27;221029;1276;139447;-61
2022/01/28 05:27:45;;;;;;;4.80;2.50;;;;;;;3.47;70.92;98488.10;221352;1276;138997;-63
2022/01/28 05:32:48;;;;;;;6.00;2.50;;;;;;;3.42;70.68;98498.67;221304;1275;140382;-62
2022/01/28 05:37:51;;;;;;;5.50;2.20;;;;;;;3.25;70.71;98498.83;221406;1276;140325;-62
2022/01/28 05:42:54;;;;;;;4.00;2.30;;;;;;;3.10;70.78;98506.44;221278;1275;138794;-62
2022/01/28 05:47:58;;;;;;;5.60;2.60;;;;;;;2.95;70.84;98509.87;221309;1276;139156;-60
2022/01/28 05:53:01;;;;;;;9.40;4.00;;;;;;;2.89;71.37;98511.16;221343;1275;138972;-63
2022/01/28 05:58:05;;;;;;;5.60;2.70;;;;;;;2.86;71.47;98522.13;221335;1276;139586;-64
2022/01/28 06:03:08;;;;;;;6.00;2.70;;;;;;;2.78;71.45;98523.89;221266;1276;138914;-63
2022/01/28 06:08:11;;;;;;;3.70;2.50;;;;;;;2.65;71.69;98526.13;221403;1276;139622;-61
2022/01/28 06:13:14;;;;;;;7.30;3.20;;;;;;;2.53;71.81;98536.52;221173;1276;139891;-63
2022/01/28 06:18:17;;;;;;;6.30;3.20;;;;;;;2.48;72.10;98541.09;221366;1276;138908;-63
2022/01/28 06:23:20;;;;;;;8.40;3.40;;;;;;;2.47;72.30;98532.05;221321;1276;140532;-65
2022/01/28 06:28:23;;;;;;;7.30;3.00;;;;;;;2.43;72.43;98533.08;221185;1276;138542;-62
2022/01/28 06:33:26;;;;;;;4.90;2.80;;;;;;;2.44;72.53;98539.02;220986;1276;140440;-61
2022/01/28 06:38:30;;;;;;;5.30;2.80;;;;;;;2.42;72.67;98552.88;221449;1276;139201;-63
2022/01/28 06:43:33;;;;;;;6.60;3.00;;;;;;;2.38;72.87;98553.91;221293;1277;138849;-60
2022/01/28 06:48:36;;;;;;;5.20;2.70;;;;;;;2.40;72.96;98552.78;221142;1275;139262;-61
2022/01/28 06:53:39;;;;;;;6.90;3.00;;;;;;;2.46;73.15;98560.27;221348;1275;139137;-63
2022/01/28 06:58:42;;;;;;;5.30;2.70;;;;;;;2.49;73.25;98564.70;221299;1277;139311;-63
2022/01/28 07:03:45;;;;;;;7.80;3.20;;;;;;;2.53;73.12;98561.08;221396;1276;139839;-64
2022/01/28 07:08:49;;;;;;;6.20;3.10;;;;;;;2.59;73.38;98568.71;221338;1276;138788;-59
2022/01/28 07:13:52;;;;;;;6.20;2.80;;;;;;;2.64;73.40;98572.56;221213;1276;139585;-60
2022/01/28 07:18:55;;;;;;;5.20;2.50;;;;;;;2.69;73.33;98577.42;221267;1276;139586;-62
2022/01/28 07:23:58;;;;;;;5.50;2.50;;;;;;;2.72;73.40;98582.21;221405;1276;140589;-62
2022/01/28 07:29:01;;;;;;;7.40;2.60;;;;;;;2.77;73.40;98585.91;221467;1276;139804;-63
2022/01/28 07:34:06;;;;;;;11.50;4.30;;;;;;;2.83;73.55;98583.92;221515;1276;139876;-61
2022/01/28 07:39:09;;;;;;;5.40;2.60;;;;;;;2.92;73.47;98583.08;221366;1277;139658;-59
2022/01/28 07:44:13;;;;;;;9.80;3.00;;;;;;;3.01;73.48;98580.95;221367;1276;138934;-56
2022/01/28 07:49:16;;;;;;;7.30;3.10;;;;;;;3.11;73.37;98585.48;221226;1276;138784;-59
2022/01/28 07:54:19;;;;;;;9.10;3.00;;;;;;;3.18;73.26;98588.52;221073;1277;139209;-56
2022/01/28 07:59:22;;;;;;;6.60;2.80;;;;;;;3.23;73.26;98591.66;221096;1276;139720;-57
2022/01/28 08:04:25;;;;;;;8.30;3.10;;;;;;;3.25;73.08;98597.35;221352;1276;138836;-57
2022/01/28 08:09:27;;;;;;;6.90;2.70;;;;;;;3.29;73.13;98600.52;221047;1276;138999;-59
2022/01/28 08:14:31;;;;;;;7.30;3.10;;;;;;;3.31;72.85;98607.09;221371;1276;139724;-60
2022/01/28 08:19:34;;;;;;;9.40;3.10;;;;;;;3.32;72.92;98614.60;221174;1276;139671;-59
2022/01/28 08:24:37;;;;;;;5.50;2.50;;;;;;;3.37;73.11;98622.33;221173;1276;139176;-60
2022/01/28 08:29:40;;;;;;;7.00;2.50;;;;;;;3.36;72.99;98629.53;221083;1276;139765;-57
2022/01/28 08:34:48;;;;;;;6.30;3.10;;;;;;;3.31;72.92;98633.73;221356;1275;141951;-64
2022/01/28 08:39:52;;;;;;;10.30;3.20;;;;;;;3.31;72.92;98643.75;221420;1276;141543;-59
2022/01/28 08:44:55;;;;;;;6.70;2.70;;;;;;;3.35;73.06;98653.27;221077;1276;139548;-62
2022/01/28 08:49:59;;;;;;;8.70;3.10;;;;;;;3.33;72.97;98661.56;221307;1276;140024;-59
2022/01/28 08:55:04;;;;;;;10.30;3.00;;;;;;;3.29;73.13;98670.30;221406;1277;139287;-59
2022/01/28 09:00:08;;;;;;;9.00;3.00;;;;;;;3.28;73.20;98681.73;221190;1276;139928;-60
2022/01/28 09:05:11;;;;;;;9.40;3.20;;;;;;;3.32;73.12;98687.02;221369;1276;140248;-57
2022/01/28 09:10:18;;;;;;;9.20;3.70;;;;;;;3.34;73.02;98697.30;221322;1277;139221;-60
2022/01/28 09:15:21;;;;;;;9.30;3.40;;;;;;;3.32;73.07;98701.55;221114;1277;138839;-59
2022/01/28 09:20:34;;;;;;;7.40;3.20;;;;;;;3.35;73.11;98718.14;221271;1276;139749;-60
2022/01/28 09:25:37;;;;;;;;;;;;;;;3.39;72.99;98731.29;221240;1276;139337;-58
2022/01/28 09:30:40;;;;;;;10.20;3.70;;;;;;;3.32;73.00;98731.00;221597;1275;125552;-58
2022/01/28 09:35:43;;;;;;;10.30;3.50;;;;;;;3.30;73.04;98737.95;221385;1276;139497;-58
2022/01/28 09:40:48;;;;;;;7.70;3.30;;;;;;;3.23;73.10;98738.02;221367;1275;142101;-61
2022/01/28 09:45:52;;;;;;;8.20;3.40;;;;;;;3.20;73.04;98736.91;221320;1277;142518;-59
2022/01/28 09:50:58;;;;;;;7.10;3.40;;;;;;;3.17;73.17;98736.30;221222;1276;138801;-60
2022/01/28 09:56:01;;;;;;;9.10;3.60;;;;;;;3.14;73.33;98739.95;221288;1276;139577;-58
2022/01/28 10:01:04;;;;;;;6.80;2.80;;;;;;;3.10;73.34;98742.55;221378;1277;143128;-60
2022/01/28 10:06:08;;;;;;;9.90;3.80;;;;;;;3.14;73.49;98740.30;221378;1276;139949;-58
2022/01/28 10:11:15;;;;;;;9.10;3.50;;;;;;;3.16;73.62;98748.10;221196;1276;139259;-59
2022/01/28 10:16:27;;;;;;;9.10;4.30;;;;;;;3.15;73.56;98759.00;221287;1276;138816;-58
2022/01/28 10:21:51;;;;;;;8.60;3.40;;;;;;;3.12;73.51;98763.33;221073;1276;138718;-59
2022/01/28 10:27:06;;;;;;;8.60;3.20;;;;;;;3.11;73.51;98770.55;221240;1276;139900;-59
2022/01/28 10:32:14;;;;;;;8.20;4.30;;;;;;;3.12;73.55;98775.41;221340;1277;140831;-58
2022/01/28 10:37:21;;;;;;;10.80;4.50;;;;;;;3.02;73.47;98781.53;221343;1276;139586;-59
2022/01/28 10:42:41;;;;;;;6.30;3.60;;;;;;;2.97;73.53;98789.80;221163;1276;139321;-59
2022/01/28 10:47:49;;;;;;;8.40;4.10;;;;;;;2.92;73.45;98790.85;221188;1277;139427;-60
2022/01/28 10:53:13;;;;;;;8.10;4.90;;;;;;;2.95;73.76;98797.56;221509;1277;139791;-59
2022/01/28 10:58:19;;;;;;;11.00;5.00;;;;;;;2.99;74.04;98808.11;221314;1277;139402;-58
2022/01/28 11:03:26;;;;;;;9.50;3.80;;;;;;;3.07;74.08;98807.69;221184;1277;139612;-59
2022/01/28 11:08:32;;;;;;;9.50;4.00;;;;;;;3.16;74.01;98810.15;221214;1277;140172;-59
2022/01/28 11:13:36;;;;;;;9.50;4.70;;;;;;;3.18;73.95;98817.45;221128;1277;139162;-59
2022/01/28 11:18:39;;;;;;;8.50;4.50;;;;;;;3.19;74.01;98820.40;221239;1277;139396;-59
2022/01/28 11:24:16;;;;;;;6.00;3.80;;;;;;;3.16;73.82;98823.65;221208;1276;140120;-60
2022/01/28 11:29:21;;;;;;;9.80;4.00;;;;;;;3.15;74.06;98824.02;221299;1277;140027;-59
2022/01/28 11:34:26;;;;;;;;;;;;;;;3.16;74.18;98832.23;221023;1277;139422;-59
2022/01/28 11:39:34;;;;;;;9.20;3.60;;;;;;;3.16;74.10;98839.25;221279;1276;125209;-58
2022/01/28 11:44:50;;;;;;;9.10;4.20;;;;;;;3.19;74.08;98842.48;221325;1276;139126;-60
2022/01/28 11:50:11;;;;;;;55.90;30.40;;;;;;;3.25;74.27;98842.27;221242;1277;141338;-59
2022/01/28 11:55:17;;;;;;;12.50;5.30;;;;;;;3.36;74.46;98848.33;221175;1277;139582;-59
2022/01/28 12:00:36;;;;;;;14.00;5.40;;;;;;;3.40;74.24;98853.81;221277;1276;139777;-60
2022/01/28 12:05:39;;;;;;;11.00;3.90;;;;;;;3.41;74.21;98858.86;221329;1276;138795;-61
2022/01/28 12:10:45;;;;;;;9.70;4.40;;;;;;;3.41;74.18;98855.53;221338;1276;140396;-59
2022/01/28 12:16:10;;;;;;;10.80;4.70;;;;;;;3.42;74.13;98861.80;220943;1276;140216;-62
2022/01/28 12:21:15;;;;;;;7.60;4.00;;;;;;;3.42;74.31;98866.36;221203;1276;138815;-59
2022/01/28 12:26:19;;;;;;;8.60;4.00;;;;;;;3.37;74.22;98871.64;221350;1276;139518;-60
2022/01/28 12:31:25;;;;;;;8.30;4.60;;;;;;;3.37;74.20;98867.11;221383;1276;140002;-59
2022/01/28 12:36:38;;;;;;;11.20;4.30;;;;;;;3.39;74.17;98877.54;221081;1276;138632;-60
2022/01/28 12:41:56;;;;;;;12.70;5.90;;;;;;;3.45;74.54;98883.98;221004;1276;139385;-60
2022/01/28 12:47:09;;;;;;;10.70;4.70;;;;;;;3.47;74.33;98890.75;221411;1276;140222;-62
2022/01/28 12:52:12;;;;;;;9.40;4.60;;;;;;;3.47;74.21;98886.02;221255;1276;140262;-59
2022/01/28 12:57:18;;;;;;;8.20;4.80;;;;;;;3.50;74.16;98898.02;221209;1276;140321;-61
2022/01/28 13:02:21;;;;;;;10.90;5.80;;;;;;;3.50;74.36;98911.85;221078;1277;139611;-58
2022/01/28 13:13:05;;;;;;;10.50;4.50;;;;;;;3.51;74.15;98930.95;221231;1277;140175;-59
2022/01/28 13:18:08;;;;;;;8.70;5.00;;;;;;;3.52;74.11;98936.52;221288;1276;139574;-60
2022/01/28 13:23:12;;;;;;;9.20;4.90;;;;;;;3.54;74.21;98948.56;221050;1276;139040;-60
2022/01/28 13:28:19;;;;;;;9.60;4.80;;;;;;;3.51;74.04;98956.01;221330;1277;139046;-59
2022/01/28 13:33:28;;;;;;;7.80;3.50;;;;;;;3.51;74.07;98960.04;221191;1276;140529;-58
2022/01/28 13:38:39;;;;;;;7.90;3.40;;;;;;;3.61;74.10;98972.02;221131;1276;140414;-61
2022/01/28 13:43:42;;;;;;;6.40;2.90;;;;;;;3.74;74.30;98975.56;221186;1276;139224;-59
2022/01/28 13:48:50;;;;;;;9.20;3.40;;;;;;;3.87;74.19;98978.43;221156;1274;139234;-58
2022/01/28 13:59:09;;;;;;;9.40;3.90;;;;;;;4.04;74.15;98991.52;221256;1277;139236;-60
2022/01/28 14:04:23;;;;;;;9.40;4.00;;;;;;;4.05;73.71;99006.92;221241;1276;139834;-59
2022/01/28 14:09:26;;;;;;;11.10;3.60;;;;;;;4.05;73.71;99021.67;221022;1276;139289;-59
2022/01/28 14:14:35;;;;;;;10.20;3.60;;;;;;;3.98;73.53;99029.98;221122;1276;139210;-59
2022/01/28 14:19:43;;;;;;;10.00;3.80;;;;;;;3.97;73.41;99045.12;221134;1277;139762;-60
2022/01/28 14:24:46;;;;;;;9.40;3.90;;;;;;;3.96;73.39;99047.80;221163;1275;139407;-61
2022/01/28 14:29:53;;;;;;;10.90;4.10;;;;;;;3.95;73.30;99051.15;221230;1276;139673;-60
2022/01/28 14:34:57;;;;;;;13.10;3.90;;;;;;;3.95;73.21;99062.75;221129;1276;139223;-63
2022/01/28 14:40:00;;;;;;;11.80;4.00;;;;;;;3.96;73.48;99067.11;221616;1276;139697;-59
2022/01/28 14:45:04;;;;;;;10.30;4.10;;;;;;;4.01;72.94;99079.56;222038;1275;140509;-59
2022/01/28 14:50:08;;;;;;;11.30;4.50;;;;;;;4.10;73.38;99084.17;222310;1275;138222;-62
2022/01/28 14:55:11;;;;;;;10.30;3.80;;;;;;;4.19;73.63;99106.69;222052;1276;139054;-59
2022/01/28 15:00:14;;;;;;;14.50;4.40;;;;;;;4.15;72.94;99117.86;222157;1275;139381;-60
2022/01/28 15:05:17;;;;;;;10.30;4.60;;;;;;;4.07;73.15;99123.77;222343;1275;96443;-59
2022/01/28 15:10:27;;;;;;;8.60;3.80;;;;;;;4.08;73.16;99139.35;222244;1275;138261;-60
2022/01/28 15:15:30;;;;;;;8.10;3.80;;;;;;;4.02;72.89;99144.82;222051;1274;137804;-60
2022/01/28 15:20:34;;;;;;;13.90;5.00;;;;;;;3.93;72.76;99155.47;222032;1276;138980;-60
2022/01/28 15:25:37;;;;;;;11.90;4.50;;;;;;;3.88;73.12;99169.34;222291;1276;137978;-61
2022/01/28 15:36:02;;;;;;;8.50;4.40;;;;;;;3.84;72.85;99176.84;222125;1276;138233;-60
2022/01/28 15:41:08;;;;;;;12.40;4.40;;;;;;;3.87;72.85;99187.29;222388;1275;96219;-58
2022/01/28 15:46:11;;;;;;;12.60;4.20;;;;;;;3.90;73.15;99191.01;221991;1275;139229;-60
2022/01/28 15:51:14;;;;;;;9.30;4.30;;;;;;;3.91;72.95;99194.33;222398;1276;138174;-60
2022/01/28 15:56:18;;;;;;;13.10;4.70;;;;;;;3.90;72.84;99191.91;222305;1276;138377;-63
2022/01/28 16:01:24;;;;;;;13.60;4.00;;;;;;;3.97;72.81;99200.27;222103;1276;138916;-61
2022/01/28 16:06:27;;;;;;;11.80;4.60;;;;;;;4.08;72.70;99212.58;222243;1276;137968;-60
2022/01/28 16:11:41;;;;;;;10.20;4.30;;;;;;;4.11;72.75;99224.42;222129;1274;158469;-62
2022/01/28 16:22:09;;;;;;;11.00;5.30;;;;;;;4.13;72.39;99250.85;222286;1276;137879;-60
2022/01/28 16:27:12;;;;;;;11.40;4.80;;;;;;;4.20;72.57;99260.97;222321;1276;139086;-60
2022/01/28 16:32:17;;;;;;;;;;;;;;;4.19;72.45;99271.89;222415;1276;138637;-59
2022/01/28 16:37:20;;;;;;;13.70;4.40;;;;;;;4.15;72.18;99285.03;221880;1275;125566;-57
2022/01/28 16:42:35;;;;;;;12.70;5.40;;;;;;;4.09;72.12;99291.72;222190;1276;139015;-59
2022/01/28 16:47:38;;;;;;;12.50;4.50;;;;;;;4.06;71.78;99299.52;222339;1275;138519;-58
2022/01/28 16:52:41;;;;;;;10.70;4.90;;;;;;;4.11;72.04;99297.27;222522;1276;111596;-59
2022/01/28 16:57:46;;;;;;;12.30;4.60;;;;;;;4.15;71.75;99308.21;222337;1276;138059;-61
2022/01/28 17:06:29;;;;;;;10.30;4.30;;;;;;;4.13;71.65;99314.59;213683;1317;656089;-59
2022/01/28 17:16:36;;;;;;;9.60;4.20;;;;;;;3.99;71.33;99339.92;214740;1290;210159;-59
2022/01/28 17:26:18;;;;;;;12.60;4.60;;;;;;;4.03;71.03;99348.59;214088;1316;656339;-57
2022/01/28 17:31:22;;;;;;;270.80;151.80;;;;;;;4.10;71.35;99352.09;217997;1292;138532;-60
2022/01/28 17:36:25;;;;;;;16.60;7.70;;;;;;;4.15;71.03;99353.15;217897;1290;173541;-59
2022/01/28 17:41:28;;;;;;;11.60;5.30;;;;;;;4.14;70.88;99365.29;218590;1288;139103;-60
2022/01/28 17:46:31;;;;;;;12.00;4.40;;;;;;;4.13;70.71;99373.39;218371;1290;138013;-58
2022/01/28 17:51:35;;;;;;;8.70;4.20;;;;;;;4.13;70.69;99381.30;218155;1290;138862;-59
2022/01/28 17:56:38;;;;;;;11.40;4.50;;;;;;;4.15;70.49;99387.39;218313;1287;138620;-58
2022/01/28 18:01:41;;;;;;;9.80;4.20;;;;;;;4.15;70.53;99390.77;218378;1290;140070;-60
2022/01/28 18:06:49;;;;;;;9.30;4.50;;;;;;;4.12;70.59;99394.87;218013;1289;137926;-59
2022/01/28 18:11:52;;;;;;;9.00;4.50;;;;;;;4.09;70.35;99400.06;217821;1290;137760;-60
2022/01/28 18:16:55;;;;;;;10.30;4.10;;;;;;;4.09;70.06;99401.96;218345;1289;138354;-60
2022/01/28 18:21:58;;;;;;;7.50;3.40;;;;;;;4.08;69.93;99407.79;218310;1289;139021;-61
2022/01/28 18:27:01;;;;;;;6.60;3.10;;;;;;;4.13;70.20;99411.68;218014;1288;138816;-61
2022/01/28 18:32:05;;;;;;;6.70;3.60;;;;;;;4.12;69.65;99427.17;217915;1289;138525;-60
2022/01/28 18:37:08;;;;;;;8.20;4.40;;;;;;;4.07;69.41;99433.29;217786;1291;137697;-59
2022/01/28 18:42:20;;;;;;;10.50;4.10;;;;;;;4.04;69.54;99434.42;219576;1283;138626;-59
2022/01/28 18:47:24;;;;;;;7.80;4.20;;;;;;;4.02;69.36;99443.62;219829;1283;138807;-58
2022/01/28 18:52:28;;;;;;;8.30;3.70;;;;;;;4.02;69.35;99445.19;219804;1282;138097;-60
2022/01/28 18:57:31;;;;;;;11.00;4.40;;;;;;;4.04;69.18;99451.09;219581;1282;139636;-58
2022/01/28 19:02:34;;;;;;;12.20;4.60;;;;;;;4.05;69.19;99455.46;219614;1283;138459;-61
2022/01/28 19:07:40;;;;;;;9.50;3.90;;;;;;;4.04;69.13;99462.69;219757;1282;138385;-59
2022/01/28 19:12:50;;;;;;;12.40;4.10;;;;;;;4.02;69.02;99466.42;219817;1282;138105;-64
2022/01/28 19:17:53;;;;;;;9.30;3.70;;;;;;;3.99;68.69;99477.91;219409;1282;138105;-58
2022/01/28 19:22:56;;;;;;;7.60;3.70;;;;;;;3.94;68.58;99488.61;219366;1284;139367;-58
2022/01/28 19:27:59;;;;;;;7.30;3.60;;;;;;;3.86;68.55;99506.20;219600;1282;139367;-58
2022/01/28 19:33:03;;;;;;;10.30;3.70;;;;;;;3.82;69.13;99527.35;219759;1283;138978;-59
2022/01/28 19:38:06;;;;;;;8.30;3.80;;;;;;;3.73;68.86;99530.41;219860;1281;138412;-60
2022/01/28 19:43:09;;;;;;;6.70;3.20;;;;;;;3.68;69.28;99545.45;219902;1282;138341;-60
2022/01/28 19:48:15;;;;;;;8.20;3.50;;;;;;;3.61;69.16;99552.66;219923;1282;137764;-59
2022/01/28 19:53:18;;;;;;;41.20;29.70;;;;;;;3.59;69.38;99569.90;220214;1283;138187;-57
2022/01/28 19:58:21;;;;;;;21.00;10.10;;;;;;;3.63;69.38;99574.70;219624;1283;138608;-57
2022/01/28 20:03:24;;;;;;;8.30;3.60;;;;;;;3.73;69.10;99578.14;219638;1282;138444;-58
2022/01/28 20:08:27;;;;;;;6.50;2.50;;;;;;;3.63;68.00;99584.55;219808;1281;138069;-62
2022/01/28 20:13:30;;;;;;;10.00;4.90;;;;;;;3.57;67.95;99596.09;220173;1282;138567;-60
2022/01/28 20:18:34;;;;;;;6.70;2.00;;;;;;;3.55;67.62;99600.50;219857;1282;139281;-59
2022/01/28 20:23:37;;;;;;;4.60;1.90;;;;;;;3.53;67.41;99615.11;219622;1282;138251;-59
2022/01/28 20:28:42;;;;;;;4.60;1.80;;;;;;;3.43;66.53;99627.81;219931;1282;139065;-59
2022/01/28 20:33:45;;;;;;;5.00;2.00;;;;;;;3.32;66.62;99637.02;220038;1282;138752;-59
2022/01/28 20:38:54;;;;;;;43.20;26.00;;;;;;;3.26;66.58;99650.48;219783;1282;138549;-58
2022/01/28 20:43:57;;;;;;;7.20;3.40;;;;;;;3.25;66.55;99664.19;219706;1282;138568;-61
2022/01/28 20:49:00;;;;;;;6.20;3.10;;;;;;;3.10;66.13;99670.64;219543;1283;138183;-59
2022/01/28 20:54:03;;;;;;;5.70;2.40;;;;;;;2.96;66.24;99683.39;219865;1280;138272;-60
2022/01/28 20:59:06;;;;;;;6.00;2.50;;;;;;;2.91;66.31;99686.46;220057;1281;138161;-60
2022/01/28 21:04:09;;;;;;;5.90;2.30;;;;;;;2.87;66.27;99694.42;220215;1281;138490;-59
2022/01/28 21:09:12;;;;;;;4.60;2.50;;;;;;;2.82;66.10;99703.29;219935;1281;139015;-60
2022/01/28 21:14:15;;;;;;;7.50;3.50;;;;;;;2.78;66.30;99706.52;219603;1282;138546;-58
2022/01/28 21:19:18;;;;;;;8.20;3.60;;;;;;;2.81;66.41;99715.75;219916;1282;138848;-58
2022/01/28 21:24:21;;;;;;;7.20;3.30;;;;;;;2.79;66.33;99730.16;220059;1281;138856;-59
2022/01/28 21:29:25;;;;;;;9.10;3.50;;;;;;;2.77;66.19;99740.70;220129;1282;138160;-58
2022/01/28 21:34:28;;;;;;;7.70;3.00;;;;;;;2.75;66.34;99752.31;220313;1281;138536;-58
2022/01/28 21:39:31;;;;;;;10.20;3.50;;;;;;;2.70;66.15;99759.42;220009;1281;138337;-59
2022/01/28 21:44:35;;;;;;;7.10;3.20;;;;;;;2.67;66.36;99767.02;219805;1282;138763;-59
2022/01/28 21:49:38;;;;;;;8.90;3.80;;;;;;;2.64;66.30;99791.77;219893;1281;138236;-60
2022/01/28 21:54:42;;;;;;;134.50;67.10;;;;;;;2.60;66.33;99795.34;220087;1281;138207;-58
2022/01/28 21:59:46;;;;;;;16.50;7.20;;;;;;;2.75;66.60;99809.98;219740;1281;139275;-60
2022/01/28 22:04:49;;;;;;;9.20;4.00;;;;;;;2.81;66.23;99821.42;219713;1283;139232;-60
2022/01/28 22:09:52;;;;;;;8.50;3.60;;;;;;;2.85;66.28;99826.95;219819;1281;138285;-60
2022/01/28 22:14:55;;;;;;;9.70;3.70;;;;;;;2.83;66.07;99818.39;220244;1281;138332;-60
2022/01/28 22:19:58;;;;;;;11.60;4.40;;;;;;;2.77;66.11;99823.24;219867;1281;139105;-60
2022/01/28 22:25:01;;;;;;;11.00;4.10;;;;;;;2.75;66.04;99830.11;219732;1284;138512;-61
2022/01/28 22:30:06;;;;;;;13.10;4.80;;;;;;;2.69;65.85;99832.48;219801;1282;138055;-59
2022/01/28 22:35:10;;;;;;;;;;;;;;;2.63;66.06;99830.67;220162;1282;138559;-61
2022/01/28 22:40:14;;;;;;;12.50;4.30;;;;;;;2.58;66.11;99835.48;219903;1283;125108;-59
2022/01/28 22:45:18;;;;;;;11.80;4.90;;;;;;;2.58;66.14;99842.48;219748;1282;138707;-59
2022/01/28 22:50:21;;;;;;;13.30;5.40;;;;;;;2.59;66.06;99845.27;219877;1281;141974;-62
2022/01/28 22:55:24;;;;;;;13.40;5.50;;;;;;;2.65;66.38;99848.33;220088;1281;138987;-60
2022/01/28 23:00:27;;;;;;;13.50;6.00;;;;;;;2.69;66.22;99856.15;220103;1281;139348;-64
2022/01/28 23:05:30;;;;;;;14.20;5.10;;;;;;;2.69;66.20;99852.82;219859;1282;138022;-58
2022/01/28 23:10:33;;;;;;;10.60;4.40;;;;;;;2.68;66.30;99854.07;219684;1283;138569;-59
2022/01/28 23:15:56;;;;;;;14.20;5.20;;;;;;;2.65;66.06;99854.81;220087;1281;139115;-59
2022/01/28 23:20:59;;;;;;;10.10;4.60;;;;;;;2.64;66.18;99852.20;219870;1283;138815;-58
2022/01/28 23:26:02;;;;;;;12.40;5.00;;;;;;;2.62;66.26;99858.17;219725;1282;138966;-61
2022/01/28 23:31:05;;;;;;;11.70;4.50;;;;;;;2.61;66.19;99860.31;219799;1282;140692;-60
2022/01/28 23:36:08;;;;;;;12.60;4.90;;;;;;;2.62;66.36;99860.81;220506;1280;138738;-59
2022/01/28 23:41:11;;;;;;;12.80;6.00;;;;;;;2.60;66.15;99865.39;220178;1281;139287;-61
2022/01/28 23:46:14;;;;;;;13.70;5.40;;;;;;;2.58;66.23;99878.04;219946;1282;138518;-60
2022/01/28 23:51:17;;;;;;;11.70;5.50;;;;;;;2.60;66.27;99879.77;219879;1281;139122;-62
2022/01/28 23:56:20;;;;;;;14.00;5.50;;;;;;;2.67;66.54;99883.69;220122;1281;138433;-61
